Glastonbury, Connecticut
Current Conditions -  °F | °C
As of 8:53 AM on Monday 24 Nov 2014 (Local Time) from KHFD Reporting Station
Light Rain Light Rain  
Wind Chill: 62°   Ceiling: 1300
Heat Index: 62°   Visibility: 2mi
Dew Point: 59°   Wind: 21mph
Humidity: 90%   Direction: 180°S
Pressure: 29.68"   Gusts: 30mph
Location:  41.71°N, 72.61°W
Report Text: KHFD 241353Z 18018G26KT 2SM -RA BR OVC013 17/15 A2968 RMK AO2 PK WND 18029/1308 SLP051 P0003 T01670150
Loading
Personal Weather Stations






























Interactive Weather Map New forecast layout! Learn more

10-Day Weather Forecast

Advertisements
Track Severe Weather on mobile